sensor_id;sensor_type;location;lat;lon;timestamp;P1;durP1;ratioP1;P2;durP2;ratioP2
21152;SDS011;10734;44.792;20.482;2023-10-13T00:00:30;20.73;;;9.90;;
21152;SDS011;10734;44.792;20.482;2023-10-13T00:03:01;28.63;;;10.37;;
21152;SDS011;10734;44.792;20.482;2023-10-13T00:05:30;22.67;;;10.10;;
21152;SDS011;10734;44.792;20.482;2023-10-13T00:07:58;22.38;;;9.05;;
21152;SDS011;10734;44.792;20.482;2023-10-13T00:10:27;17.05;;;8.80;;
21152;SDS011;10734;44.792;20.482;2023-10-13T00:12:54;20.92;;;9.38;;
21152;SDS011;10734;44.792;20.482;2023-10-13T00:15:32;16.88;;;8.85;;
21152;SDS011;10734;44.792;20.482;2023-10-13T00:18:05;16.25;;;9.10;;
21152;SDS011;10734;44.792;20.482;2023-10-13T00:20:39;13.00;;;8.13;;
21152;SDS011;10734;44.792;20.482;2023-10-13T00:23:06;21.70;;;9.02;;
21152;SDS011;10734;44.792;20.482;2023-10-13T00:25:32;15.57;;;8.85;;
21152;SDS011;10734;44.792;20.482;2023-10-13T00:28:10;21.38;;;9.30;;
21152;SDS011;10734;44.792;20.482;2023-10-13T00:30:38;20.55;;;8.73;;
21152;SDS011;10734;44.792;20.482;2023-10-13T00:33:04;17.67;;;9.57;;
21152;SDS011;10734;44.792;20.482;2023-10-13T00:35:31;19.60;;;10.50;;
21152;SDS011;10734;44.792;20.482;2023-10-13T00:38:08;16.92;;;9.23;;
21152;SDS011;10734;44.792;20.482;2023-10-13T00:40:43;20.65;;;8.88;;
21152;SDS011;10734;44.792;20.482;2023-10-13T00:43:19;18.48;;;9.02;;
21152;SDS011;10734;44.792;20.482;2023-10-13T00:45:50;18.05;;;9.50;;
21152;SDS011;10734;44.792;20.482;2023-10-13T00:48:30;19.08;;;8.13;;
21152;SDS011;10734;44.792;20.482;2023-10-13T00:51:03;17.80;;;8.23;;
21152;SDS011;10734;44.792;20.482;2023-10-13T00:53:33;20.67;;;8.30;;
21152;SDS011;10734;44.792;20.482;2023-10-13T00:56:01;17.58;;;9.52;;
21152;SDS011;10734;44.792;20.482;2023-10-13T00:58:34;20.67;;;9.82;;
21152;SDS011;10734;44.792;20.482;2023-10-13T01:01:01;22.80;;;10.40;;
21152;SDS011;10734;44.792;20.482;2023-10-13T01:03:54;21.30;;;11.13;;
21152;SDS011;10734;44.792;20.482;2023-10-13T01:06:28;29.58;;;11.15;;
21152;SDS011;10734;44.792;20.482;2023-10-13T01:09:06;23.33;;;10.48;;
21152;SDS011;10734;44.792;20.482;2023-10-13T01:11:47;20.30;;;10.60;;
21152;SDS011;10734;44.792;20.482;2023-10-13T01:14:22;20.00;;;11.07;;
21152;SDS011;10734;44.792;20.482;2023-10-13T01:16:52;20.08;;;11.43;;
21152;SDS011;10734;44.792;20.482;2023-10-13T01:19:28;21.52;;;11.15;;
21152;SDS011;10734;44.792;20.482;2023-10-13T01:21:58;23.08;;;12.15;;
21152;SDS011;10734;44.792;20.482;2023-10-13T01:24:34;25.73;;;11.55;;
21152;SDS011;10734;44.792;20.482;2023-10-13T01:27:06;25.25;;;12.02;;
21152;SDS011;10734;44.792;20.482;2023-10-13T01:29:46;22.05;;;11.20;;
21152;SDS011;10734;44.792;20.482;2023-10-13T01:32:27;25.58;;;11.05;;
21152;SDS011;10734;44.792;20.482;2023-10-13T01:35:00;27.83;;;11.80;;
21152;SDS011;10734;44.792;20.482;2023-10-13T01:37:33;23.77;;;11.82;;
21152;SDS011;10734;44.792;20.482;2023-10-13T01:40:05;27.27;;;12.90;;
21152;SDS011;10734;44.792;20.482;2023-10-13T01:42:39;21.27;;;10.95;;
21152;SDS011;10734;44.792;20.482;2023-10-13T01:45:08;20.17;;;10.50;;
21152;SDS011;10734;44.792;20.482;2023-10-13T01:47:36;36.03;;;11.88;;
21152;SDS011;10734;44.792;20.482;2023-10-13T01:50:03;31.38;;;13.68;;
21152;SDS011;10734;44.792;20.482;2023-10-13T01:52:45;24.10;;;12.20;;
21152;SDS011;10734;44.792;20.482;2023-10-13T01:55:14;22.67;;;12.23;;
21152;SDS011;10734;44.792;20.482;2023-10-13T01:57:42;38.00;;;13.70;;
21152;SDS011;10734;44.792;20.482;2023-10-13T02:00:16;30.02;;;13.40;;
21152;SDS011;10734;44.792;20.482;2023-10-13T02:02:49;23.67;;;14.32;;
21152;SDS011;10734;44.792;20.482;2023-10-13T02:05:18;28.08;;;12.32;;
21152;SDS011;10734;44.792;20.482;2023-10-13T02:07:47;20.35;;;11.90;;
21152;SDS011;10734;44.792;20.482;2023-10-13T02:10:16;22.83;;;11.80;;
21152;SDS011;10734;44.792;20.482;2023-10-13T02:12:46;27.35;;;13.65;;
21152;SDS011;10734;44.792;20.482;2023-10-13T02:15:14;19.65;;;12.20;;
21152;SDS011;10734;44.792;20.482;2023-10-13T02:17:53;17.27;;;11.23;;
21152;SDS011;10734;44.792;20.482;2023-10-13T02:20:21;25.20;;;11.57;;
21152;SDS011;10734;44.792;20.482;2023-10-13T02:22:51;23.95;;;12.73;;
21152;SDS011;10734;44.792;20.482;2023-10-13T02:25:18;19.67;;;11.30;;
21152;SDS011;10734;44.792;20.482;2023-10-13T02:28:04;23.80;;;11.00;;
21152;SDS011;10734;44.792;20.482;2023-10-13T02:30:46;28.45;;;12.15;;
21152;SDS011;10734;44.792;20.482;2023-10-13T02:33:15;27.27;;;12.27;;
21152;SDS011;10734;44.792;20.482;2023-10-13T02:35:48;22.27;;;10.75;;
21152;SDS011;10734;44.792;20.482;2023-10-13T02:38:20;20.55;;;11.20;;
21152;SDS011;10734;44.792;20.482;2023-10-13T02:40:56;20.60;;;11.32;;
21152;SDS011;10734;44.792;20.482;2023-10-13T02:43:22;21.75;;;11.65;;
21152;SDS011;10734;44.792;20.482;2023-10-13T02:45:52;19.25;;;10.70;;
21152;SDS011;10734;44.792;20.482;2023-10-13T02:48:26;22.08;;;10.75;;
21152;SDS011;10734;44.792;20.482;2023-10-13T02:50:57;25.77;;;10.80;;
21152;SDS011;10734;44.792;20.482;2023-10-13T02:53:28;23.47;;;10.97;;
21152;SDS011;10734;44.792;20.482;2023-10-13T02:55:55;17.77;;;10.13;;
21152;SDS011;10734;44.792;20.482;2023-10-13T02:58:24;23.95;;;11.10;;
21152;SDS011;10734;44.792;20.482;2023-10-13T03:00:57;30.05;;;11.95;;
21152;SDS011;10734;44.792;20.482;2023-10-13T03:03:24;28.88;;;12.02;;
21152;SDS011;10734;44.792;20.482;2023-10-13T03:05:58;26.17;;;11.55;;
21152;SDS011;10734;44.792;20.482;2023-10-13T03:08:26;31.00;;;13.10;;
21152;SDS011;10734;44.792;20.482;2023-10-13T03:10:53;29.23;;;13.35;;
21152;SDS011;10734;44.792;20.482;2023-10-13T03:13:21;26.92;;;12.18;;
21152;SDS011;10734;44.792;20.482;2023-10-13T03:15:47;30.20;;;13.15;;
21152;SDS011;10734;44.792;20.482;2023-10-13T03:18:14;20.40;;;12.00;;
21152;SDS011;10734;44.792;20.482;2023-10-13T03:20:45;28.88;;;13.07;;
21152;SDS011;10734;44.792;20.482;2023-10-13T03:25:43;21.30;;;12.45;;
21152;SDS011;10734;44.792;20.482;2023-10-13T03:28:10;24.98;;;12.32;;
21152;SDS011;10734;44.792;20.482;2023-10-13T03:30:40;26.88;;;13.70;;
21152;SDS011;10734;44.792;20.482;2023-10-13T03:33:09;34.28;;;13.80;;
21152;SDS011;10734;44.792;20.482;2023-10-13T03:35:38;37.65;;;15.10;;
21152;SDS011;10734;44.792;20.482;2023-10-13T03:38:08;24.23;;;12.95;;
21152;SDS011;10734;44.792;20.482;2023-10-13T03:40:44;27.70;;;14.82;;
21152;SDS011;10734;44.792;20.482;2023-10-13T03:43:45;28.70;;;13.30;;
21152;SDS011;10734;44.792;20.482;2023-10-13T03:46:18;28.38;;;13.25;;
21152;SDS011;10734;44.792;20.482;2023-10-13T03:48:48;27.17;;;13.20;;
21152;SDS011;10734;44.792;20.482;2023-10-13T03:51:21;22.83;;;12.30;;
21152;SDS011;10734;44.792;20.482;2023-10-13T03:53:48;28.27;;;13.70;;
21152;SDS011;10734;44.792;20.482;2023-10-13T03:56:22;28.08;;;13.15;;
21152;SDS011;10734;44.792;20.482;2023-10-13T03:58:58;34.20;;;15.07;;
21152;SDS011;10734;44.792;20.482;2023-10-13T04:01:57;23.38;;;13.45;;
21152;SDS011;10734;44.792;20.482;2023-10-13T04:04:24;34.42;;;14.20;;
21152;SDS011;10734;44.792;20.482;2023-10-13T04:07:03;33.38;;;15.38;;
21152;SDS011;10734;44.792;20.482;2023-10-13T04:09:36;37.05;;;14.55;;
21152;SDS011;10734;44.792;20.482;2023-10-13T04:12:04;31.23;;;13.45;;
21152;SDS011;10734;44.792;20.482;2023-10-13T04:14:31;26.98;;;12.95;;
21152;SDS011;10734;44.792;20.482;2023-10-13T04:17:16;36.10;;;14.50;;
21152;SDS011;10734;44.792;20.482;2023-10-13T04:19:49;27.73;;;14.30;;
21152;SDS011;10734;44.792;20.482;2023-10-13T04:22:38;28.38;;;14.02;;
21152;SDS011;10734;44.792;20.482;2023-10-13T04:28:02;28.13;;;14.20;;
21152;SDS011;10734;44.792;20.482;2023-10-13T04:36:11;25.92;;;13.45;;
21152;SDS011;10734;44.792;20.482;2023-10-13T04:38:54;26.20;;;13.18;;
21152;SDS011;10734;44.792;20.482;2023-10-13T04:44:11;30.80;;;15.38;;
21152;SDS011;10734;44.792;20.482;2023-10-13T04:46:58;34.40;;;13.80;;
21152;SDS011;10734;44.792;20.482;2023-10-13T04:49:26;30.63;;;14.27;;
21152;SDS011;10734;44.792;20.482;2023-10-13T04:52:16;24.48;;;14.05;;
21152;SDS011;10734;44.792;20.482;2023-10-13T04:55:02;36.42;;;15.00;;
21152;SDS011;10734;44.792;20.482;2023-10-13T04:57:44;34.47;;;14.70;;
21152;SDS011;10734;44.792;20.482;2023-10-13T05:00:16;24.20;;;12.98;;
21152;SDS011;10734;44.792;20.482;2023-10-13T05:02:46;27.23;;;14.35;;
21152;SDS011;10734;44.792;20.482;2023-10-13T05:05:27;29.83;;;13.85;;
21152;SDS011;10734;44.792;20.482;2023-10-13T05:08:13;24.30;;;13.77;;
21152;SDS011;10734;44.792;20.482;2023-10-13T05:11:02;22.13;;;12.85;;
21152;SDS011;10734;44.792;20.482;2023-10-13T05:13:47;23.92;;;12.55;;
21152;SDS011;10734;44.792;20.482;2023-10-13T05:16:32;23.02;;;12.23;;
21152;SDS011;10734;44.792;20.482;2023-10-13T05:19:18;23.70;;;13.18;;
21152;SDS011;10734;44.792;20.482;2023-10-13T05:22:03;33.30;;;14.63;;
21152;SDS011;10734;44.792;20.482;2023-10-13T05:24:48;33.17;;;15.98;;
21152;SDS011;10734;44.792;20.482;2023-10-13T05:27:33;38.00;;;14.73;;
21152;SDS011;10734;44.792;20.482;2023-10-13T05:30:20;27.58;;;15.82;;
21152;SDS011;10734;44.792;20.482;2023-10-13T05:33:05;34.53;;;15.50;;
21152;SDS011;10734;44.792;20.482;2023-10-13T05:35:50;30.02;;;14.95;;
21152;SDS011;10734;44.792;20.482;2023-10-13T05:38:35;27.48;;;13.73;;
21152;SDS011;10734;44.792;20.482;2023-10-13T05:41:20;31.42;;;15.90;;
21152;SDS011;10734;44.792;20.482;2023-10-13T05:44:06;37.50;;;14.43;;
21152;SDS011;10734;44.792;20.482;2023-10-13T05:46:51;28.23;;;14.25;;
21152;SDS011;10734;44.792;20.482;2023-10-13T05:49:37;32.00;;;14.15;;
21152;SDS011;10734;44.792;20.482;2023-10-13T05:52:32;42.67;;;15.43;;
21152;SDS011;10734;44.792;20.482;2023-10-13T05:55:17;26.58;;;13.57;;
21152;SDS011;10734;44.792;20.482;2023-10-13T05:58:02;43.92;;;15.02;;
21152;SDS011;10734;44.792;20.482;2023-10-13T06:00:48;28.95;;;14.35;;
21152;SDS011;10734;44.792;20.482;2023-10-13T06:03:33;31.88;;;15.35;;
21152;SDS011;10734;44.792;20.482;2023-10-13T06:06:20;36.33;;;14.65;;
21152;SDS011;10734;44.792;20.482;2023-10-13T06:09:08;30.27;;;13.20;;
21152;SDS011;10734;44.792;20.482;2023-10-13T06:11:55;54.00;;;23.40;;
21152;SDS011;10734;44.792;20.482;2023-10-13T06:14:48;47.55;;;20.17;;
21152;SDS011;10734;44.792;20.482;2023-10-13T06:17:33;50.38;;;20.80;;
21152;SDS011;10734;44.792;20.482;2023-10-13T06:20:25;50.27;;;19.70;;
21152;SDS011;10734;44.792;20.482;2023-10-13T06:23:12;44.53;;;17.55;;
21152;SDS011;10734;44.792;20.482;2023-10-13T06:26:02;37.17;;;15.00;;
21152;SDS011;10734;44.792;20.482;2023-10-13T06:28:49;30.05;;;13.20;;
21152;SDS011;10734;44.792;20.482;2023-10-13T06:31:18;37.35;;;12.35;;
21152;SDS011;10734;44.792;20.482;2023-10-13T06:33:51;39.83;;;14.52;;
21152;SDS011;10734;44.792;20.482;2023-10-13T06:36:18;27.45;;;12.10;;
21152;SDS011;10734;44.792;20.482;2023-10-13T06:38:48;31.85;;;11.52;;
21152;SDS011;10734;44.792;20.482;2023-10-13T06:41:23;32.40;;;11.55;;
21152;SDS011;10734;44.792;20.482;2023-10-13T06:44:08;25.42;;;11.32;;
21152;SDS011;10734;44.792;20.482;2023-10-13T06:46:45;23.23;;;10.73;;
21152;SDS011;10734;44.792;20.482;2023-10-13T06:49:13;29.58;;;10.82;;
21152;SDS011;10734;44.792;20.482;2023-10-13T06:51:42;29.73;;;11.57;;
21152;SDS011;10734;44.792;20.482;2023-10-13T06:54:12;28.25;;;10.35;;
21152;SDS011;10734;44.792;20.482;2023-10-13T06:56:48;20.70;;;9.75;;
21152;SDS011;10734;44.792;20.482;2023-10-13T06:59:19;19.42;;;10.00;;
21152;SDS011;10734;44.792;20.482;2023-10-13T07:01:46;28.77;;;11.38;;
21152;SDS011;10734;44.792;20.482;2023-10-13T07:04:14;21.30;;;10.57;;
21152;SDS011;10734;44.792;20.482;2023-10-13T07:06:43;24.50;;;10.43;;
21152;SDS011;10734;44.792;20.482;2023-10-13T07:09:16;20.58;;;9.63;;
21152;SDS011;10734;44.792;20.482;2023-10-13T07:12:15;22.50;;;9.15;;
21152;SDS011;10734;44.792;20.482;2023-10-13T07:14:54;24.15;;;9.88;;
21152;SDS011;10734;44.792;20.482;2023-10-13T07:17:37;24.38;;;9.57;;
21152;SDS011;10734;44.792;20.482;2023-10-13T07:20:07;19.90;;;9.00;;
21152;SDS011;10734;44.792;20.482;2023-10-13T07:22:52;16.55;;;8.30;;
21152;SDS011;10734;44.792;20.482;2023-10-13T07:25:29;24.83;;;9.27;;
21152;SDS011;10734;44.792;20.482;2023-10-13T07:28:00;19.80;;;9.02;;
21152;SDS011;10734;44.792;20.482;2023-10-13T07:30:26;26.92;;;9.00;;
21152;SDS011;10734;44.792;20.482;2023-10-13T07:32:54;23.17;;;8.10;;
21152;SDS011;10734;44.792;20.482;2023-10-13T07:35:24;19.25;;;7.93;;
21152;SDS011;10734;44.792;20.482;2023-10-13T07:37:51;26.50;;;8.75;;
21152;SDS011;10734;44.792;20.482;2023-10-13T07:40:22;16.77;;;8.50;;
21152;SDS011;10734;44.792;20.482;2023-10-13T07:42:52;23.88;;;8.10;;
21152;SDS011;10734;44.792;20.482;2023-10-13T07:45:18;20.02;;;7.70;;
21152;SDS011;10734;44.792;20.482;2023-10-13T07:47:48;24.02;;;7.70;;
21152;SDS011;10734;44.792;20.482;2023-10-13T07:50:16;23.75;;;8.00;;
21152;SDS011;10734;44.792;20.482;2023-10-13T07:52:51;25.40;;;8.85;;
21152;SDS011;10734;44.792;20.482;2023-10-13T07:55:37;21.92;;;8.27;;
21152;SDS011;10734;44.792;20.482;2023-10-13T07:58:05;21.50;;;7.68;;
21152;SDS011;10734;44.792;20.482;2023-10-13T08:00:34;26.70;;;8.32;;
21152;SDS011;10734;44.792;20.482;2023-10-13T08:03:10;22.92;;;8.05;;
21152;SDS011;10734;44.792;20.482;2023-10-13T08:05:56;31.25;;;9.25;;
21152;SDS011;10734;44.792;20.482;2023-10-13T08:08:33;25.23;;;9.10;;
21152;SDS011;10734;44.792;20.482;2023-10-13T08:11:06;22.05;;;9.23;;
21152;SDS011;10734;44.792;20.482;2023-10-13T08:13:52;27.10;;;9.68;;
21152;SDS011;10734;44.792;20.482;2023-10-13T08:16:38;24.27;;;8.85;;
21152;SDS011;10734;44.792;20.482;2023-10-13T08:19:12;27.90;;;9.90;;
21152;SDS011;10734;44.792;20.482;2023-10-13T08:21:45;19.33;;;8.23;;
21152;SDS011;10734;44.792;20.482;2023-10-13T08:24:47;20.83;;;9.07;;
21152;SDS011;10734;44.792;20.482;2023-10-13T08:27:17;25.33;;;9.35;;
21152;SDS011;10734;44.792;20.482;2023-10-13T08:30:05;23.35;;;8.93;;
21152;SDS011;10734;44.792;20.482;2023-10-13T08:32:50;18.65;;;8.65;;
21152;SDS011;10734;44.792;20.482;2023-10-13T08:35:44;21.35;;;8.82;;
21152;SDS011;10734;44.792;20.482;2023-10-13T08:38:29;20.02;;;8.70;;
21152;SDS011;10734;44.792;20.482;2023-10-13T08:40:58;18.80;;;8.15;;
21152;SDS011;10734;44.792;20.482;2023-10-13T08:43:25;16.35;;;7.88;;
21152;SDS011;10734;44.792;20.482;2023-10-13T08:46:06;20.50;;;8.45;;
21152;SDS011;10734;44.792;20.482;2023-10-13T08:48:34;19.85;;;8.18;;
21152;SDS011;10734;44.792;20.482;2023-10-13T08:51:02;20.10;;;7.75;;
21152;SDS011;10734;44.792;20.482;2023-10-13T08:53:37;18.98;;;8.20;;
21152;SDS011;10734;44.792;20.482;2023-10-13T08:56:12;13.27;;;7.30;;
21152;SDS011;10734;44.792;20.482;2023-10-13T08:58:58;30.45;;;9.30;;
21152;SDS011;10734;44.792;20.482;2023-10-13T09:01:28;23.00;;;9.00;;
21152;SDS011;10734;44.792;20.482;2023-10-13T09:04:08;22.00;;;9.10;;
21152;SDS011;10734;44.792;20.482;2023-10-13T09:06:45;27.50;;;9.45;;
21152;SDS011;10734;44.792;20.482;2023-10-13T09:09:32;33.03;;;11.10;;
21152;SDS011;10734;44.792;20.482;2023-10-13T09:12:02;26.25;;;9.55;;
21152;SDS011;10734;44.792;20.482;2023-10-13T09:14:37;18.90;;;8.65;;
21152;SDS011;10734;44.792;20.482;2023-10-13T09:17:24;20.20;;;8.48;;
21152;SDS011;10734;44.792;20.482;2023-10-13T09:20:01;20.88;;;8.18;;
21152;SDS011;10734;44.792;20.482;2023-10-13T09:22:46;21.90;;;8.68;;
21152;SDS011;10734;44.792;20.482;2023-10-13T09:25:31;18.25;;;8.73;;
21152;SDS011;10734;44.792;20.482;2023-10-13T09:28:12;20.73;;;7.28;;
21152;SDS011;10734;44.792;20.482;2023-10-13T09:30:48;24.42;;;8.43;;
21152;SDS011;10734;44.792;20.482;2023-10-13T09:33:19;23.63;;;9.00;;
21152;SDS011;10734;44.792;20.482;2023-10-13T09:35:54;22.95;;;8.60;;
21152;SDS011;10734;44.792;20.482;2023-10-13T09:38:21;24.08;;;8.25;;
21152;SDS011;10734;44.792;20.482;2023-10-13T09:40:48;22.33;;;8.30;;
21152;SDS011;10734;44.792;20.482;2023-10-13T09:43:17;28.95;;;8.43;;
21152;SDS011;10734;44.792;20.482;2023-10-13T09:45:48;20.58;;;8.55;;
21152;SDS011;10734;44.792;20.482;2023-10-13T09:48:36;17.27;;;7.53;;
21152;SDS011;10734;44.792;20.482;2023-10-13T09:51:13;24.45;;;7.20;;
21152;SDS011;10734;44.792;20.482;2023-10-13T09:53:40;20.30;;;8.35;;
21152;SDS011;10734;44.792;20.482;2023-10-13T09:56:29;24.95;;;7.93;;
21152;SDS011;10734;44.792;20.482;2023-10-13T09:59:06;23.65;;;8.95;;
21152;SDS011;10734;44.792;20.482;2023-10-13T10:01:37;20.30;;;7.13;;
21152;SDS011;10734;44.792;20.482;2023-10-13T10:04:17;16.15;;;7.28;;
21152;SDS011;10734;44.792;20.482;2023-10-13T10:06:51;22.20;;;7.07;;
21152;SDS011;10734;44.792;20.482;2023-10-13T10:09:18;15.80;;;7.30;;
21152;SDS011;10734;44.792;20.482;2023-10-13T10:17:11;20.58;;;8.35;;
21152;SDS011;10734;44.792;20.482;2023-10-13T10:19:50;18.23;;;7.53;;
21152;SDS011;10734;44.792;20.482;2023-10-13T10:22:28;20.33;;;7.28;;
21152;SDS011;10734;44.792;20.482;2023-10-13T10:25:00;17.35;;;7.20;;
21152;SDS011;10734;44.792;20.482;2023-10-13T10:27:30;15.02;;;7.53;;
21152;SDS011;10734;44.792;20.482;2023-10-13T10:29:58;25.10;;;7.75;;
21152;SDS011;10734;44.792;20.482;2023-10-13T10:32:32;17.83;;;7.07;;
21152;SDS011;10734;44.792;20.482;2023-10-13T10:35:02;21.30;;;8.00;;
21152;SDS011;10734;44.792;20.482;2023-10-13T10:37:34;21.58;;;7.95;;
21152;SDS011;10734;44.792;20.482;2023-10-13T10:40:06;14.45;;;8.02;;
21152;SDS011;10734;44.792;20.482;2023-10-13T10:42:34;16.27;;;6.70;;
21152;SDS011;10734;44.792;20.482;2023-10-13T10:45:02;17.10;;;7.65;;
21152;SDS011;10734;44.792;20.482;2023-10-13T10:47:35;14.90;;;7.75;;
21152;SDS011;10734;44.792;20.482;2023-10-13T10:50:05;14.32;;;6.47;;
21152;SDS011;10734;44.792;20.482;2023-10-13T10:52:45;16.67;;;7.47;;
21152;SDS011;10734;44.792;20.482;2023-10-13T10:55:13;24.17;;;7.78;;
21152;SDS011;10734;44.792;20.482;2023-10-13T10:57:46;28.63;;;7.35;;
21152;SDS011;10734;44.792;20.482;2023-10-13T11:00:21;16.90;;;7.38;;
21152;SDS011;10734;44.792;20.482;2023-10-13T11:02:58;18.85;;;8.50;;
21152;SDS011;10734;44.792;20.482;2023-10-13T11:05:24;23.00;;;8.00;;
21152;SDS011;10734;44.792;20.482;2023-10-13T11:07:58;28.60;;;8.68;;
21152;SDS011;10734;44.792;20.482;2023-10-13T11:10:25;28.23;;;9.20;;
21152;SDS011;10734;44.792;20.482;2023-10-13T11:12:56;22.48;;;7.95;;
21152;SDS011;10734;44.792;20.482;2023-10-13T11:15:41;30.15;;;10.45;;
21152;SDS011;10734;44.792;20.482;2023-10-13T11:18:11;38.78;;;11.85;;
21152;SDS011;10734;44.792;20.482;2023-10-13T11:20:42;25.95;;;9.30;;
21152;SDS011;10734;44.792;20.482;2023-10-13T11:23:13;23.63;;;8.48;;
21152;SDS011;10734;44.792;20.482;2023-10-13T11:25:40;25.95;;;10.00;;
21152;SDS011;10734;44.792;20.482;2023-10-13T11:30:36;27.92;;;9.18;;
21152;SDS011;10734;44.792;20.482;2023-10-13T11:33:03;41.63;;;10.38;;
21152;SDS011;10734;44.792;20.482;2023-10-13T11:35:33;23.80;;;8.52;;
21152;SDS011;10734;44.792;20.482;2023-10-13T11:38:15;15.70;;;7.50;;
21152;SDS011;10734;44.792;20.482;2023-10-13T11:40:55;20.77;;;7.70;;
21152;SDS011;10734;44.792;20.482;2023-10-13T11:43:32;24.73;;;7.93;;
21152;SDS011;10734;44.792;20.482;2023-10-13T11:46:02;26.38;;;9.02;;
21152;SDS011;10734;44.792;20.482;2023-10-13T11:48:35;16.33;;;7.13;;
21152;SDS011;10734;44.792;20.482;2023-10-13T11:51:05;17.97;;;7.37;;
21152;SDS011;10734;44.792;20.482;2023-10-13T11:53:35;23.50;;;7.50;;
21152;SDS011;10734;44.792;20.482;2023-10-13T11:56:05;14.10;;;6.68;;
21152;SDS011;10734;44.792;20.482;2023-10-13T11:58:37;17.73;;;6.53;;
21152;SDS011;10734;44.792;20.482;2023-10-13T12:01:04;16.85;;;6.18;;
21152;SDS011;10734;44.792;20.482;2023-10-13T12:03:43;13.27;;;5.75;;
21152;SDS011;10734;44.792;20.482;2023-10-13T12:06:29;14.63;;;6.15;;
21152;SDS011;10734;44.792;20.482;2023-10-13T12:09:02;14.68;;;5.82;;
21152;SDS011;10734;44.792;20.482;2023-10-13T12:11:42;19.63;;;6.25;;
21152;SDS011;10734;44.792;20.482;2023-10-13T12:14:08;15.32;;;5.50;;
21152;SDS011;10734;44.792;20.482;2023-10-13T12:16:43;15.90;;;6.25;;
21152;SDS011;10734;44.792;20.482;2023-10-13T12:19:16;21.67;;;6.85;;
21152;SDS011;10734;44.792;20.482;2023-10-13T12:21:45;14.98;;;6.93;;
21152;SDS011;10734;44.792;20.482;2023-10-13T12:24:14;16.98;;;6.75;;
21152;SDS011;10734;44.792;20.482;2023-10-13T12:26:59;20.13;;;6.68;;
21152;SDS011;10734;44.792;20.482;2023-10-13T12:29:26;11.48;;;5.63;;
21152;SDS011;10734;44.792;20.482;2023-10-13T12:31:56;16.58;;;6.00;;
21152;SDS011;10734;44.792;20.482;2023-10-13T12:34:36;12.95;;;6.30;;
21152;SDS011;10734;44.792;20.482;2023-10-13T12:37:21;22.33;;;7.40;;
21152;SDS011;10734;44.792;20.482;2023-10-13T12:42:48;16.00;;;6.88;;
21152;SDS011;10734;44.792;20.482;2023-10-13T12:45:33;21.42;;;6.88;;
21152;SDS011;10734;44.792;20.482;2023-10-13T12:48:18;20.85;;;7.38;;
21152;SDS011;10734;44.792;20.482;2023-10-13T12:51:03;21.35;;;6.97;;
21152;SDS011;10734;44.792;20.482;2023-10-13T12:53:52;20.58;;;7.55;;
21152;SDS011;10734;44.792;20.482;2023-10-13T12:56:19;19.83;;;7.27;;
21152;SDS011;10734;44.792;20.482;2023-10-13T12:58:52;21.98;;;6.82;;
21152;SDS011;10734;44.792;20.482;2023-10-13T13:01:23;22.30;;;7.60;;
21152;SDS011;10734;44.792;20.482;2023-10-13T13:03:51;17.73;;;7.13;;
21152;SDS011;10734;44.792;20.482;2023-10-13T13:06:23;13.10;;;6.35;;
21152;SDS011;10734;44.792;20.482;2023-10-13T13:08:52;14.68;;;7.20;;
21152;SDS011;10734;44.792;20.482;2023-10-13T13:11:19;16.23;;;6.88;;
21152;SDS011;10734;44.792;20.482;2023-10-13T13:13:45;19.75;;;7.78;;
21152;SDS011;10734;44.792;20.482;2023-10-13T13:16:13;19.85;;;7.47;;
21152;SDS011;10734;44.792;20.482;2023-10-13T13:18:40;22.65;;;7.72;;
21152;SDS011;10734;44.792;20.482;2023-10-13T13:21:06;17.55;;;7.45;;
21152;SDS011;10734;44.792;20.482;2023-10-13T13:23:33;21.65;;;7.97;;
21152;SDS011;10734;44.792;20.482;2023-10-13T13:26:01;18.13;;;7.10;;
21152;SDS011;10734;44.792;20.482;2023-10-13T13:28:28;18.38;;;8.18;;
21152;SDS011;10734;44.792;20.482;2023-10-13T13:31:04;26.30;;;7.90;;
21152;SDS011;10734;44.792;20.482;2023-10-13T13:33:34;13.50;;;7.13;;
21152;SDS011;10734;44.792;20.482;2023-10-13T13:36:05;23.73;;;8.40;;
21152;SDS011;10734;44.792;20.482;2023-10-13T13:38:31;18.85;;;6.90;;
21152;SDS011;10734;44.792;20.482;2023-10-13T13:40:59;14.52;;;7.03;;
21152;SDS011;10734;44.792;20.482;2023-10-13T13:43:28;16.65;;;7.75;;
21152;SDS011;10734;44.792;20.482;2023-10-13T13:45:58;18.35;;;7.97;;
21152;SDS011;10734;44.792;20.482;2023-10-13T13:48:27;31.35;;;8.73;;
21152;SDS011;10734;44.792;20.482;2023-10-13T13:50:54;17.23;;;7.18;;
21152;SDS011;10734;44.792;20.482;2023-10-13T13:53:30;17.20;;;7.72;;
21152;SDS011;10734;44.792;20.482;2023-10-13T13:56:01;17.13;;;6.90;;
21152;SDS011;10734;44.792;20.482;2023-10-13T13:58:29;14.18;;;7.45;;
21152;SDS011;10734;44.792;20.482;2023-10-13T14:01:00;18.90;;;8.25;;
21152;SDS011;10734;44.792;20.482;2023-10-13T14:03:38;25.02;;;8.40;;
21152;SDS011;10734;44.792;20.482;2023-10-13T14:06:15;19.67;;;8.52;;
21152;SDS011;10734;44.792;20.482;2023-10-13T14:08:44;22.70;;;7.55;;
21152;SDS011;10734;44.792;20.482;2023-10-13T14:11:15;17.40;;;7.97;;
21152;SDS011;10734;44.792;20.482;2023-10-13T14:14:02;18.13;;;7.50;;
21152;SDS011;10734;44.792;20.482;2023-10-13T14:16:30;16.08;;;7.07;;
21152;SDS011;10734;44.792;20.482;2023-10-13T14:19:03;17.58;;;7.32;;
21152;SDS011;10734;44.792;20.482;2023-10-13T14:21:34;13.73;;;7.80;;
21152;SDS011;10734;44.792;20.482;2023-10-13T14:24:01;11.68;;;6.90;;
21152;SDS011;10734;44.792;20.482;2023-10-13T14:26:29;13.68;;;6.60;;
21152;SDS011;10734;44.792;20.482;2023-10-13T14:28:56;18.08;;;6.90;;
21152;SDS011;10734;44.792;20.482;2023-10-13T14:31:32;16.77;;;7.20;;
21152;SDS011;10734;44.792;20.482;2023-10-13T14:33:59;19.55;;;7.20;;
21152;SDS011;10734;44.792;20.482;2023-10-13T14:36:26;16.77;;;6.82;;
21152;SDS011;10734;44.792;20.482;2023-10-13T14:38:56;18.25;;;7.03;;
21152;SDS011;10734;44.792;20.482;2023-10-13T14:41:23;20.23;;;7.25;;
21152;SDS011;10734;44.792;20.482;2023-10-13T14:43:49;17.40;;;7.60;;
21152;SDS011;10734;44.792;20.482;2023-10-13T14:46:17;16.80;;;6.82;;
21152;SDS011;10734;44.792;20.482;2023-10-13T14:48:43;14.55;;;6.65;;
21152;SDS011;10734;44.792;20.482;2023-10-13T14:51:10;16.67;;;7.35;;
21152;SDS011;10734;44.792;20.482;2023-10-13T14:53:42;18.70;;;7.32;;
21152;SDS011;10734;44.792;20.482;2023-10-13T14:56:13;16.63;;;7.35;;
21152;SDS011;10734;44.792;20.482;2023-10-13T14:58:40;22.43;;;8.13;;
21152;SDS011;10734;44.792;20.482;2023-10-13T15:01:17;14.60;;;6.82;;
21152;SDS011;10734;44.792;20.482;2023-10-13T15:03:47;18.83;;;7.03;;
21152;SDS011;10734;44.792;20.482;2023-10-13T15:06:18;20.90;;;6.72;;
21152;SDS011;10734;44.792;20.482;2023-10-13T15:08:44;24.45;;;8.05;;
21152;SDS011;10734;44.792;20.482;2023-10-13T15:11:12;17.08;;;7.80;;
21152;SDS011;10734;44.792;20.482;2023-10-13T15:13:42;20.95;;;7.50;;
21152;SDS011;10734;44.792;20.482;2023-10-13T15:16:15;17.05;;;7.78;;
21152;SDS011;10734;44.792;20.482;2023-10-13T15:18:46;15.65;;;8.45;;
21152;SDS011;10734;44.792;20.482;2023-10-13T15:21:22;19.00;;;8.13;;